This is the latest recevied weather packets stored in our database for station/object OK2ILA-6. If no packets are shown the sender has not sent any weather packets the latest 10 day(s).
| Time | Temp. | Humidity | Pressure | Rain* | Wind** | Luminosity | Snow |
|---|---|---|---|---|---|---|---|
| 1777803002 | 24.44° C | 38% | 1017.8 hPa | - | - | - | - |
| 1777802403 | 24.44° C | 38% | 1017.9 hPa | - | - | - | - |
| 1777801803 | 24.44° C | 38% | 1018.1 hPa | - | - | - | - |
| 1777801202 | 23.89° C | 38% | 1018.2 hPa | - | - | - | - |
| 1777800602 | 23.89° C | 38% | 1018.4 hPa | - | - | - | - |
| 1777800002 | 23.33° C | 40% | 1018.3 hPa | - | - | - | - |
| 1777799403 | 23.33° C | 38% | 1018.3 hPa | - | - | - | - |
| 1777798803 | 23.33° C | 39% | 1018.4 hPa | - | - | - | - |
| 1777798203 | 23.33° C | 38% | 1018.4 hPa | - | - | - | - |
| 1777797602 | 23.33° C | 38% | 1018.4 hPa | - | - | - | - |
| 1777797002 | 23.33° C | 38% | 1018.4 hPa | - | - | - | - |
| 1777796403 | 23.33° C | 39% | 1018.4 hPa | - | - | - | - |
| 1777795803 | 22.78° C | 40% | 1018.4 hPa | - | - | - | - |
| 1777795203 | 22.22° C | 42% | 1018.4 hPa | - | - | - | - |
| 1777794602 | 21.67° C | 41% | 1018.4 hPa | - | - | - | - |
| 1777794002 | 21.67° C | 42% | 1018.4 hPa | - | - | - | - |
| 1777793403 | 21.11° C | 44% | 1018.4 hPa | - | - | - | - |
| 1777792803 | 21.11° C | 45% | 1018.4 hPa | - | - | - | - |
| 1777792203 | 20° C | 44% | 1018.2 hPa | - | - | - | - |
| 1777791602 | 19.44° C | 46% | 1018.2 hPa | - | - | - | - |
| 1777791002 | 18.89° C | 47% | 1018.3 hPa | - | - | - | - |
| 1777790403 | 18.89° C | 48% | 1018.4 hPa | - | - | - | - |
| 1777789803 | 18.33° C | 50% | 1018.2 hPa | - | - | - | - |
| 1777789202 | 17.78° C | 53% | 1018.2 hPa | - | - | - | - |
| 1777788602 | 17.78° C | 53% | 1018.2 hPa | - | - | - | - |
* Rain since midnight (hover to see other rain measurements)
** Current wind speed in m/s (hover to see current wind gust speed)